Time;durP1;ratioP1;P1;durP2;ratioP2;P2;SDS_P1;SDS_P2;PMS_P1;PMS_P2;Temp;Humidity;BMP_temperature;BMP_pressure;BME280_temperature;BME280_humidity;BME280_pressure;Samples;Min_cycle;Max_cycle;Signal;HPM_P1;HPM_P2
2022/05/29 00:00:18;;;;;;;1.15;0.57;;;11.00;66.30;;;;;;5067916;28;20071;-73
2022/05/29 00:02:44;;;;;;;0.60;0.50;;;11.00;67.00;;;;;;5065291;28;20044;-73
2022/05/29 00:05:12;;;;;;;3.30;0.90;;;10.90;67.30;;;;;;5077393;28;20099;-73
2022/05/29 00:07:40;;;;;;;1.42;0.50;;;10.90;67.80;;;;;;5070419;28;20048;-76
2022/05/29 00:10:09;;;;;;;1.90;0.70;;;10.90;68.00;;;;;;5061580;28;20056;-74
2022/05/29 00:12:36;;;;;;;1.45;0.57;;;10.80;68.30;;;;;;5071344;28;20035;-73
2022/05/29 00:15:02;;;;;;;2.13;1.00;;;10.80;68.80;;;;;;5068505;28;20029;-74
2022/05/29 00:17:29;;;;;;;3.80;0.70;;;10.70;69.20;;;;;;5053748;28;20032;-74
2022/05/29 00:19:55;;;;;;;2.25;1.10;;;10.70;69.50;;;;;;5065433;28;20025;-74
2022/05/29 00:22:23;;;;;;;1.60;0.63;;;10.70;69.90;;;;;;5073289;28;20381;-73
2022/05/29 00:24:50;;;;;;;5.25;1.30;;;10.70;69.80;;;;;;5069939;28;20048;-74
2022/05/29 00:27:17;;;;;;;2.53;0.90;;;10.80;69.60;;;;;;5071033;28;20032;-73
2022/05/29 00:29:44;;;;;;;2.05;1.08;;;10.80;69.20;;;;;;5068551;28;20040;-74
2022/05/29 00:32:11;;;;;;;3.25;0.77;;;10.80;69.00;;;;;;5068796;28;20041;-73
2022/05/29 00:34:37;;;;;;;2.80;0.98;;;10.80;69.00;;;;;;5047832;28;20029;-75
2022/05/29 00:37:06;;;;;;;3.47;1.33;;;10.80;69.00;;;;;;5074771;28;20127;-73
2022/05/29 00:39:32;;;;;;;2.38;0.93;;;10.70;69.20;;;;;;5075399;28;20496;-73
2022/05/29 00:41:59;;;;;;;1.23;0.70;;;10.80;69.10;;;;;;5055599;28;20051;-76
2022/05/29 00:44:30;;;;;;;4.65;1.15;;;10.70;69.30;;;;;;5056465;28;20048;-74
2022/05/29 00:46:56;;;;;;;2.85;1.00;;;10.70;69.40;;;;;;5070565;28;20043;-73
2022/05/29 00:49:29;;;;;;;1.50;0.90;;;10.70;69.50;;;;;;5069202;28;20032;-73
2022/05/29 00:52:06;;;;;;;2.40;0.85;;;10.60;69.60;;;;;;5073014;28;20095;-73
2022/05/29 00:54:42;;;;;;;1.55;1.05;;;10.60;69.70;;;;;;5070992;28;20496;-73
2022/05/29 00:57:14;;;;;;;1.88;0.68;;;10.60;70.00;;;;;;5071844;28;20548;-74
2022/05/29 00:59:42;;;;;;;1.20;0.98;;;10.60;70.20;;;;;;5068223;28;20048;-74
2022/05/29 01:02:09;;;;;;;3.97;1.25;;;10.50;70.40;;;;;;5074020;28;20036;-74
2022/05/29 01:04:37;;;;;;;1.63;0.70;;;10.50;70.70;;;;;;5074031;28;20040;-73
2022/05/29 01:07:06;;;;;;;1.65;1.27;;;10.50;70.80;;;;;;5073655;28;20028;-73
2022/05/29 01:09:34;;;;;;;2.25;1.35;;;10.50;70.90;;;;;;5068501;28;20033;-73
2022/05/29 01:12:11;;;;;;;1.65;1.00;;;10.50;71.30;;;;;;5073946;28;20033;-73
2022/05/29 01:14:52;;;;;;;1.48;0.75;;;10.50;71.20;;;;;;5073765;28;20048;-76
2022/05/29 01:17:50;;;;;;;7.18;1.27;;;10.40;71.40;;;;;;5067879;28;20020;-73
2022/05/29 01:20:47;;;;;;;1.80;0.82;;;10.50;71.60;;;;;;5072662;28;20043;-74
2022/05/29 01:23:46;;;;;;;3.45;1.50;;;10.50;71.80;;;;;;5069330;28;20028;-74
2022/05/29 01:26:32;;;;;;;2.70;0.90;;;10.40;72.10;;;;;;5074114;28;20047;-73
2022/05/29 01:29:04;;;;;;;3.30;1.35;;;10.40;72.50;;;;;;5066527;28;20060;-75
2022/05/29 01:31:50;;;;;;;3.47;1.17;;;10.30;72.70;;;;;;5072866;28;20036;-74
2022/05/29 01:34:36;;;;;;;2.88;1.35;;;10.30;73.20;;;;;;5069419;28;20029;-74
2022/05/29 01:37:26;;;;;;;3.35;1.20;;;10.30;73.30;;;;;;5068241;28;20033;-74
2022/05/29 01:40:04;;;;;;;2.22;1.35;;;10.30;73.70;;;;;;5065792;28;20040;-74
2022/05/29 01:42:49;;;;;;;3.42;1.15;;;10.20;74.10;;;;;;5069676;28;20051;-75
2022/05/29 01:45:34;;;;;;;3.92;1.25;;;10.20;74.40;;;;;;5054955;28;20040;-75
2022/05/29 01:48:16;;;;;;;2.42;1.15;;;10.20;74.70;;;;;;5055613;28;20036;-74
2022/05/29 01:50:50;;;;;;;1.88;1.30;;;10.20;74.90;;;;;;5060748;28;20048;-75
2022/05/29 01:53:26;;;;;;;2.83;1.38;;;10.20;75.40;;;;;;5070583;28;20036;-74
2022/05/29 01:55:57;;;;;;;1.70;1.23;;;10.20;75.40;;;;;;5069460;28;20033;-73
2022/05/29 01:58:37;;;;;;;1.85;0.80;;;10.20;75.80;;;;;;5074048;28;20036;-74
2022/05/29 02:01:06;;;;;;;2.63;1.07;;;10.20;76.10;;;;;;5072153;28;20044;-74
2022/05/29 02:03:37;;;;;;;1.00;0.75;;;10.20;76.30;;;;;;5067340;28;20048;-74
2022/05/29 02:06:12;;;;;;;4.05;1.27;;;10.20;76.70;;;;;;5074925;28;20024;-73
2022/05/29 02:08:52;;;;;;;3.75;0.98;;;10.10;77.10;;;;;;5072896;28;20498;-74
2022/05/29 02:11:24;;;;;;;1.77;0.87;;;10.10;77.60;;;;;;5071849;28;20048;-74
2022/05/29 02:14:11;;;;;;;1.83;1.25;;;10.10;78.30;;;;;;5073467;28;20290;-74
2022/05/29 02:16:43;;;;;;;4.03;1.08;;;10.10;78.90;;;;;;5074414;28;20029;-76
2022/05/29 02:19:19;;;;;;;17.13;1.60;;;10.10;79.20;;;;;;5069074;28;20377;-75
2022/05/29 02:21:59;;;;;;;5.07;1.75;;;10.00;79.80;;;;;;5078501;28;20032;-75
2022/05/29 02:24:36;;;;;;;2.03;1.27;;;9.90;80.40;;;;;;5066307;28;20036;-75
2022/05/29 02:27:08;;;;;;;3.13;1.00;;;10.00;80.90;;;;;;5079517;28;20047;-76
2022/05/29 02:29:35;;;;;;;2.20;1.25;;;9.90;81.40;;;;;;5065184;28;20048;-75
2022/05/29 02:32:22;;;;;;;2.67;1.30;;;9.80;82.20;;;;;;5073882;28;20033;-76
2022/05/29 02:35:09;;;;;;;4.03;1.38;;;9.80;83.00;;;;;;5068493;28;20390;-73
2022/05/29 02:37:51;;;;;;;4.72;1.25;;;9.80;83.60;;;;;;5071333;28;20032;-73
2022/05/29 02:40:36;;;;;;;2.35;1.00;;;9.80;84.40;;;;;;5067843;28;20078;-72
2022/05/29 02:43:11;;;;;;;2.75;1.02;;;9.70;85.10;;;;;;5066572;28;20055;-73
2022/05/29 02:45:58;;;;;;;7.60;1.23;;;9.70;85.50;;;;;;5069830;28;20058;-75
2022/05/29 02:48:43;;;;;;;1.63;0.82;;;9.70;86.00;;;;;;5070892;28;20485;-74
2022/05/29 02:51:14;;;;;;;3.53;1.02;;;9.70;85.90;;;;;;5052670;28;20025;-74
2022/05/29 02:53:45;;;;;;;2.50;0.95;;;9.80;86.20;;;;;;5068415;28;20028;-75
2022/05/29 02:56:13;;;;;;;1.50;1.20;;;9.80;86.20;;;;;;5068938;28;20037;-74
2022/05/29 02:58:43;;;;;;;3.28;1.17;;;9.80;86.30;;;;;;5062796;28;20505;-76
2022/05/29 03:01:38;;;;;;;2.05;1.17;;;9.90;86.10;;;;;;5068895;28;20036;-75
2022/05/29 03:04:31;;;;;;;4.50;1.63;;;9.90;86.20;;;;;;5072514;28;20037;-75
2022/05/29 03:07:16;;;;;;;5.97;1.88;;;9.90;86.30;;;;;;5062086;28;20044;-74
2022/05/29 03:09:58;;;;;;;2.97;1.20;;;9.80;86.90;;;;;;5069950;28;20028;-74
2022/05/29 03:12:40;;;;;;;1.77;1.23;;;9.70;87.40;;;;;;5069740;28;20043;-77
2022/05/29 03:15:15;;;;;;;3.20;1.48;;;9.70;87.90;;;;;;5064019;28;20029;-75
2022/05/29 03:17:55;;;;;;;3.63;1.38;;;9.70;88.40;;;;;;5070919;28;20365;-77
2022/05/29 03:20:41;;;;;;;7.50;1.10;;;9.70;88.70;;;;;;5070124;28;20020;-73
2022/05/29 03:23:20;;;;;;;8.52;1.17;;;9.70;88.70;;;;;;5054291;28;20037;-74
2022/05/29 03:25:54;;;;;;;2.03;1.23;;;9.60;88.90;;;;;;5070387;28;20028;-74
2022/05/29 03:28:44;;;;;;;3.10;1.50;;;9.60;89.00;;;;;;5070603;28;20036;-75
2022/05/29 03:31:16;;;;;;;2.13;1.42;;;9.60;89.10;;;;;;5070668;28;20405;-76
2022/05/29 03:33:46;;;;;;;1.77;1.02;;;9.60;89.10;;;;;;5066585;28;20044;-75
2022/05/29 03:36:14;;;;;;;3.17;1.25;;;9.60;89.40;;;;;;5067207;28;20032;-74
2022/05/29 03:38:41;;;;;;;4.43;1.60;;;9.60;89.60;;;;;;5052913;28;20036;-76
2022/05/29 03:41:15;;;;;;;2.75;1.33;;;9.60;89.30;;;;;;5051270;28;20036;-74
2022/05/29 03:43:42;;;;;;;2.10;1.15;;;9.70;89.20;;;;;;5066324;28;20029;-76
2022/05/29 03:46:08;;;;;;;2.00;1.15;;;9.70;89.20;;;;;;5069248;28;20040;-72
2022/05/29 03:48:34;;;;;;;3.63;1.40;;;9.70;89.40;;;;;;5070441;28;20040;-73
2022/05/29 03:51:07;;;;;;;1.90;1.00;;;9.70;89.50;;;;;;5064827;28;20460;-72
2022/05/29 03:53:34;;;;;;;2.65;1.20;;;9.60;89.60;;;;;;5069434;28;20032;-74
2022/05/29 03:56:00;;;;;;;1.40;0.93;;;9.60;89.80;;;;;;5069844;28;20024;-74
2022/05/29 03:58:26;;;;;;;2.38;1.27;;;9.60;89.70;;;;;;5067469;28;20028;-75
2022/05/29 04:00:53;;;;;;;3.50;1.20;;;9.70;89.40;;;;;;5068481;28;20036;-74
2022/05/29 04:03:19;;;;;;;3.38;1.40;;;9.70;89.00;;;;;;5071991;28;20048;-74
2022/05/29 04:05:46;;;;;;;4.75;1.77;;;9.70;88.60;;;;;;5066975;28;20025;-76
2022/05/29 04:13:43;;;;;;;1.30;0.70;;;9.80;87.60;;;;;;5060558;28;20478;-78
2022/05/29 04:16:10;;;;;;;3.17;1.52;;;9.80;87.30;;;;;;5069123;28;20033;-75
2022/05/29 04:18:37;;;;;;;2.03;0.82;;;9.80;87.70;;;;;;5064653;28;20035;-76
2022/05/29 04:21:05;;;;;;;9.85;1.85;;;9.90;87.50;;;;;;5066394;28;20029;-75
2022/05/29 04:23:32;;;;;;;2.22;1.05;;;9.80;87.50;;;;;;5072359;28;20036;-75
2022/05/29 04:25:58;;;;;;;6.82;1.40;;;9.90;87.20;;;;;;5063165;28;20028;-74
2022/05/29 04:28:25;;;;;;;6.43;1.42;;;10.00;87.40;;;;;;5047359;28;20045;-76
2022/05/29 04:30:51;;;;;;;2.92;1.70;;;9.90;87.50;;;;;;5060236;28;20033;-74
2022/05/29 04:33:17;;;;;;;2.88;1.27;;;10.00;87.70;;;;;;5067675;28;20045;-75
2022/05/29 04:35:49;;;;;;;1.42;1.13;;;10.00;87.10;;;;;;5064665;28;20033;-75
2022/05/29 04:38:16;;;;;;;5.80;1.42;;;10.00;87.70;;;;;;5049441;28;20040;-74
2022/05/29 04:40:43;;;;;;;12.73;1.42;;;10.00;88.50;;;;;;5068155;28;20036;-76
2022/05/29 04:43:10;;;;;;;2.88;1.33;;;10.00;88.80;;;;;;5066155;28;20047;-75
2022/05/29 04:45:43;;;;;;;4.05;1.40;;;10.00;89.30;;;;;;5071645;28;20035;-74
2022/05/29 04:48:10;;;;;;;9.90;1.90;;;9.90;89.30;;;;;;5062894;28;20052;-74
2022/05/29 04:50:37;;;;;;;9.57;1.42;;;10.00;88.90;;;;;;5070909;28;20020;-75
2022/05/29 04:53:04;;;;;;;1.98;1.40;;;10.00;88.80;;;;;;5065347;28;20363;-72
2022/05/29 04:55:30;;;;;;;5.15;1.45;;;10.00;88.50;;;;;;5066062;28;20032;-74
2022/05/29 04:57:56;;;;;;;3.13;1.40;;;10.00;88.50;;;;;;5068589;28;20044;-74
2022/05/29 05:00:23;;;;;;;2.00;0.90;;;10.00;88.60;;;;;;5067724;28;20047;-74
2022/05/29 05:02:49;;;;;;;1.38;0.80;;;10.00;88.80;;;;;;5068980;28;20036;-76
2022/05/29 05:05:16;;;;;;;5.07;1.80;;;9.90;89.60;;;;;;5071026;28;20029;-74
2022/05/29 05:07:42;;;;;;;2.65;1.13;;;9.90;90.10;;;;;;5065262;28;20039;-77
2022/05/29 05:10:11;;;;;;;3.05;1.33;;;9.90;90.50;;;;;;5065576;28;20056;-74
2022/05/29 05:12:44;;;;;;;3.30;1.02;;;9.90;90.60;;;;;;5071422;28;20036;-74
2022/05/29 05:15:13;;;;;;;2.88;1.17;;;9.90;90.90;;;;;;5054374;28;20056;-75
2022/05/29 05:17:39;;;;;;;1.02;0.95;;;9.80;91.60;;;;;;5070988;28;20028;-74
2022/05/29 05:20:06;;;;;;;3.10;1.48;;;9.80;92.10;;;;;;5059714;28;20039;-74
2022/05/29 05:22:33;;;;;;;2.03;1.33;;;9.70;94.20;;;;;;5052956;28;20032;-75
2022/05/29 05:24:59;;;;;;;12.98;1.95;;;9.50;96.00;;;;;;5068638;28;20481;-74
2022/05/29 05:27:26;;;;;;;4.45;1.65;;;9.40;97.90;;;;;;5066865;28;20037;-73
2022/05/29 05:29:52;;;;;;;1.77;1.27;;;9.10;98.10;;;;;;5065151;28;20401;-73
2022/05/29 05:32:18;;;;;;;8.50;1.88;;;9.00;99.20;;;;;;5070753;28;20401;-74
2022/05/29 05:34:44;;;;;;;9.90;1.77;;;8.90;99.90;;;;;;5071634;28;20032;-74
2022/05/29 05:37:12;;;;;;;4.15;1.33;;;8.90;99.90;;;;;;5073372;28;20472;-73
2022/05/29 05:39:39;;;;;;;2.15;1.42;;;8.90;99.90;;;;;;5046362;28;20037;-73
2022/05/29 05:42:06;;;;;;;4.13;1.35;;;8.90;99.90;;;;;;5068331;28;20040;-73
2022/05/29 05:44:32;;;;;;;6.30;1.48;;;8.90;99.90;;;;;;5068204;28;20037;-73
2022/05/29 05:46:59;;;;;;;8.15;1.30;;;8.90;99.90;;;;;;5072160;28;20055;-74
2022/05/29 05:49:25;;;;;;;4.80;1.58;;;9.00;99.90;;;;;;5034456;28;20063;-73
2022/05/29 05:51:51;;;;;;;7.82;1.60;;;9.10;99.90;;;;;;5074790;28;20080;-74
2022/05/29 05:54:19;;;;;;;10.15;1.75;;;9.20;99.90;;;;;;5072906;28;20020;-73
2022/05/29 05:56:48;;;;;;;2.00;1.58;;;9.20;99.90;;;;;;5068236;28;20031;-75
2022/05/29 05:59:14;;;;;;;3.78;1.75;;;9.30;99.90;;;;;;5069695;28;20041;-73
2022/05/29 06:01:41;;;;;;;3.63;1.45;;;9.30;99.90;;;;;;5036406;28;20052;-73
2022/05/29 06:04:08;;;;;;;2.75;1.50;;;9.40;99.90;;;;;;5072628;28;20028;-73
2022/05/29 06:06:34;;;;;;;3.47;1.50;;;9.50;99.90;;;;;;5072231;28;20033;-73
2022/05/29 06:09:00;;;;;;;1.70;1.50;;;9.60;99.90;;;;;;5071767;28;20035;-76
2022/05/29 06:11:29;;;;;;;1.60;1.05;;;9.60;99.90;;;;;;5068005;28;20056;-76
2022/05/29 06:13:56;;;;;;;11.32;1.75;;;9.60;99.90;;;;;;5067782;28;20032;-76
2022/05/29 06:16:22;;;;;;;3.03;1.25;;;9.50;99.90;;;;;;5068787;28;20033;-76
2022/05/29 06:18:48;;;;;;;4.00;1.48;;;9.60;99.90;;;;;;5071472;28;20037;-76
2022/05/29 06:21:15;;;;;;;1.45;1.00;;;9.80;99.90;;;;;;5068991;28;20085;-76
2022/05/29 06:23:41;;;;;;;3.22;1.45;;;9.90;99.90;;;;;;5069644;28;20035;-76
2022/05/29 06:26:11;;;;;;;3.25;1.20;;;10.20;99.90;;;;;;5065202;28;20061;-76
2022/05/29 06:28:38;;;;;;;3.17;1.45;;;11.20;98.50;;;;;;5065316;28;20029;-77
2022/05/29 06:31:05;;;;;;;2.83;1.27;;;13.00;94.00;;;;;;5069843;28;20040;-77
2022/05/29 06:33:32;;;;;;;1.90;1.30;;;13.30;90.80;;;;;;5065026;28;20048;-77
2022/05/29 06:36:09;;;;;;;6.53;1.55;;;13.30;90.10;;;;;;5069447;28;20024;-77
2022/05/29 06:38:36;;;;;;;6.60;1.73;;;13.50;88.80;;;;;;5061868;28;20095;-76
2022/05/29 06:41:10;;;;;;;10.05;1.63;;;14.10;82.20;;;;;;5070240;28;20051;-79
2022/05/29 06:43:38;;;;;;;1.35;0.95;;;14.50;77.30;;;;;;5069827;28;20036;-77
2022/05/29 06:46:06;;;;;;;1.45;1.02;;;14.40;75.70;;;;;;5073259;28;20036;-77
2022/05/29 06:48:33;;;;;;;3.33;0.98;;;14.50;74.20;;;;;;5069750;28;20032;-78
2022/05/29 06:51:14;;;;;;;3.92;1.42;;;13.90;73.70;;;;;;5068824;28;20044;-77
2022/05/29 06:53:40;;;;;;;3.15;1.48;;;14.00;75.50;;;;;;5068207;28;20028;-79
2022/05/29 06:56:08;;;;;;;3.40;1.33;;;13.40;76.30;;;;;;5069332;28;20083;-78
2022/05/29 06:58:35;;;;;;;2.95;1.10;;;13.50;75.50;;;;;;5067568;28;20048;-77
2022/05/29 07:09:26;;;;;;;1.80;0.63;;;14.40;74.80;;;;;;5065615;28;20029;-80
2022/05/29 07:12:15;;;;;;;2.58;1.02;;;14.90;70.20;;;;;;5069653;28;20040;-77
2022/05/29 07:14:48;;;;;;;1.95;0.80;;;15.30;65.60;;;;;;5059649;28;20048;-78
2022/05/29 07:17:14;;;;;;;0.77;0.50;;;15.30;65.60;;;;;;5072668;28;20035;-77
2022/05/29 07:19:42;;;;;;;1.00;0.63;;;15.00;63.50;;;;;;5053032;28;20032;-80
2022/05/29 07:22:11;;;;;;;2.83;1.02;;;15.10;62.50;;;;;;5070417;28;20103;-77
2022/05/29 07:24:39;;;;;;;3.22;0.93;;;15.00;63.60;;;;;;5072455;28;20051;-80
2022/05/29 07:27:06;;;;;;;2.25;1.13;;;15.10;62.60;;;;;;5071291;28;20035;-76
2022/05/29 07:29:33;;;;;;;3.92;0.90;;;15.00;61.60;;;;;;5065916;28;20033;-80
2022/05/29 07:32:00;;;;;;;7.75;1.77;;;15.20;62.10;;;;;;5051628;28;20044;-78
2022/05/29 07:34:27;;;;;;;1.73;0.52;;;15.20;61.10;;;;;;5054938;28;20036;-77
2022/05/29 07:37:00;;;;;;;1.55;1.08;;;15.20;61.20;;;;;;5071404;28;20040;-76
2022/05/29 07:39:26;;;;;;;3.45;1.10;;;15.70;59.20;;;;;;5069027;28;20386;-78
2022/05/29 07:44:37;;;;;;;2.17;0.85;;;17.20;57.40;;;;;;5067586;28;20051;-78
2022/05/29 07:47:04;;;;;;;3.08;1.40;;;17.00;58.00;;;;;;5069402;28;20055;-78
2022/05/29 07:49:30;;;;;;;6.47;1.13;;;17.00;57.70;;;;;;5066664;28;20381;-79
2022/05/29 07:51:56;;;;;;;2.67;1.30;;;16.70;58.40;;;;;;5071870;28;20476;-76
2022/05/29 07:54:25;;;;;;;1.55;0.68;;;16.70;58.60;;;;;;5068593;28;20036;-78
2022/05/29 07:56:52;;;;;;;1.67;0.98;;;15.20;60.40;;;;;;5069473;28;20063;-76
2022/05/29 07:59:19;;;;;;;4.45;1.15;;;13.50;65.20;;;;;;5070914;28;20024;-78
2022/05/29 08:01:45;;;;;;;3.75;1.17;;;13.20;67.30;;;;;;5069752;28;20044;-76
2022/05/29 08:04:11;;;;;;;10.07;1.05;;;13.60;65.90;;;;;;5053557;28;20049;-73
2022/05/29 08:06:37;;;;;;;1.80;0.85;;;13.50;66.10;;;;;;5065125;28;20056;-79
2022/05/29 08:09:04;;;;;;;2.38;0.88;;;13.30;67.10;;;;;;5063175;28;20032;-77
2022/05/29 08:11:30;;;;;;;4.63;1.27;;;13.40;66.40;;;;;;5071167;28;20052;-77
2022/05/29 08:13:57;;;;;;;4.43;1.35;;;13.30;66.60;;;;;;5070139;28;20029;-76
2022/05/29 08:16:23;;;;;;;4.22;1.33;;;13.90;65.20;;;;;;5068090;28;20043;-76
2022/05/29 08:18:49;;;;;;;1.70;1.15;;;14.10;63.90;;;;;;5068904;28;20032;-77
2022/05/29 08:21:15;;;;;;;3.10;0.98;;;15.10;62.10;;;;;;5070558;28;20032;-76
2022/05/29 08:30:37;;;;;;;3.25;0.98;;;14.60;62.10;;;;;;5052619;28;20053;-76
2022/05/29 08:31:58;;;;;;;3.78;1.10;;;13.70;66.30;;;;;;5068704;28;20055;-77
2022/05/29 08:34:24;;;;;;;3.58;0.98;;;13.70;66.20;;;;;;5053410;28;20032;-76
2022/05/29 08:36:50;;;;;;;3.90;1.15;;;13.50;65.60;;;;;;5036371;28;20048;-77
2022/05/29 08:39:17;;;;;;;2.67;1.08;;;13.70;66.70;;;;;;5051328;28;20039;-77
2022/05/29 08:41:48;;;;;;;2.92;1.35;;;13.70;65.40;;;;;;5066761;28;20060;-79
2022/05/29 08:44:34;;;;;;;1.70;0.90;;;13.70;64.40;;;;;;5073270;28;20047;-76
2022/05/29 08:47:04;;;;;;;1.30;0.85;;;13.70;64.30;;;;;;5056473;28;20040;-77
2022/05/29 08:49:39;;;;;;;3.38;1.10;;;13.60;64.00;;;;;;5039128;28;20473;-76
2022/05/29 08:52:29;;;;;;;2.13;1.13;;;14.50;63.50;;;;;;5074512;28;20044;-76
2022/05/29 08:55:21;;;;;;;1.38;0.85;;;17.60;58.60;;;;;;5056641;28;20040;-73
2022/05/29 08:58:06;;;;;;;1.95;0.85;;;17.50;53.30;;;;;;5061106;28;20139;-75
2022/05/29 09:00:45;;;;;;;1.13;0.60;;;16.10;56.80;;;;;;5030760;28;20044;-77
2022/05/29 09:03:48;;;;;;;2.38;1.15;;;15.40;55.20;;;;;;5072340;28;20028;-75
2022/05/29 09:06:21;;;;;;;1.35;0.98;;;15.10;55.40;;;;;;5055120;28;20457;-76
2022/05/29 09:09:13;;;;;;;1.92;0.90;;;14.80;55.90;;;;;;5055084;28;20044;-76
2022/05/29 09:11:56;;;;;;;1.35;0.68;;;14.90;56.10;;;;;;5018645;28;20083;-76
2022/05/29 09:14:30;;;;;;;1.30;0.70;;;14.80;57.20;;;;;;5037186;28;20059;-76
2022/05/29 09:17:19;;;;;;;4.40;1.02;;;15.00;57.30;;;;;;5026336;28;20048;-77
2022/05/29 09:19:45;;;;;;;2.65;0.98;;;15.50;56.20;;;;;;5050972;28;20524;-78
2022/05/29 09:22:31;;;;;;;1.60;0.68;;;15.00;56.50;;;;;;5057382;28;20048;-76
2022/05/29 09:25:09;;;;;;;1.92;0.88;;;14.70;55.40;;;;;;5056227;28;20041;-76
2022/05/29 09:27:38;;;;;;;6.72;1.02;;;14.30;57.10;;;;;;5054097;28;20033;-76
2022/05/29 09:30:06;;;;;;;2.30;0.80;;;14.30;58.10;;;;;;5036902;28;20055;-77
2022/05/29 09:32:35;;;;;;;1.15;0.77;;;14.20;58.40;;;;;;5074608;28;20039;-77
2022/05/29 09:35:12;;;;;;;1.70;0.73;;;14.10;58.50;;;;;;5042689;28;20044;-77
2022/05/29 09:37:53;;;;;;;1.05;0.65;;;14.40;58.90;;;;;;5053149;28;20385;-76
2022/05/29 09:40:31;;;;;;;2.45;1.33;;;14.90;56.80;;;;;;5051413;28;20048;-77
2022/05/29 09:43:14;;;;;;;3.55;0.73;;;14.90;55.90;;;;;;5039351;28;20401;-76
2022/05/29 09:45:41;;;;;;;1.48;0.70;;;14.80;55.70;;;;;;5067186;28;20052;-76
2022/05/29 09:51:20;;;;;;;2.58;0.75;;;15.00;55.10;;;;;;5074276;28;20037;-75
2022/05/29 09:53:58;;;;;;;1.63;0.60;;;15.10;55.20;;;;;;5065717;28;20055;-77
2022/05/29 09:56:28;;;;;;;6.68;1.00;;;15.30;54.70;;;;;;5065999;28;20035;-76
2022/05/29 09:59:12;;;;;;;2.10;1.23;;;15.80;53.70;;;;;;5066806;28;20036;-76
2022/05/29 10:01:45;;;;;;;2.58;0.55;;;16.00;54.10;;;;;;5073103;28;20389;-75
2022/05/29 10:04:37;;;;;;;5.90;1.17;;;15.50;54.50;;;;;;5063381;28;20049;-74
2022/05/29 10:07:26;;;;;;;3.25;1.00;;;16.10;52.70;;;;;;5073706;28;20032;-75
2022/05/29 10:10:00;;;;;;;1.33;0.85;;;15.70;52.20;;;;;;5065479;28;20041;-77
2022/05/29 10:12:45;;;;;;;2.45;1.27;;;16.00;53.80;;;;;;5074071;28;20047;-76
2022/05/29 10:15:26;;;;;;;1.63;0.68;;;16.60;51.50;;;;;;5057336;28;20055;-75
2022/05/29 10:18:00;;;;;;;1.98;0.85;;;17.00;51.70;;;;;;5038146;28;20043;-76
2022/05/29 10:20:39;;;;;;;1.27;0.50;;;17.00;49.60;;;;;;5072879;28;20359;-74
2022/05/29 10:23:34;;;;;;;26.45;1.10;;;16.40;49.10;;;;;;5049330;28;20261;-77
2022/05/29 10:26:13;;;;;;;1.75;0.70;;;16.80;49.50;;;;;;5062548;28;20045;-76
2022/05/29 10:28:41;;;;;;;5.57;0.95;;;17.10;49.40;;;;;;5067612;28;20040;-76
2022/05/29 10:31:13;;;;;;;1.58;0.70;;;17.10;50.90;;;;;;5067862;28;20028;-76
2022/05/29 10:33:40;;;;;;;1.58;0.90;;;17.20;47.40;;;;;;5072469;28;20033;-76
2022/05/29 10:36:08;;;;;;;1.20;0.60;;;18.30;46.50;;;;;;5068198;28;20032;-76
2022/05/29 10:38:35;;;;;;;1.48;0.65;;;18.40;45.60;;;;;;5052727;28;20031;-74
2022/05/29 10:41:03;;;;;;;3.45;0.77;;;17.30;46.40;;;;;;5054488;28;20037;-74
2022/05/29 10:43:54;;;;;;;0.98;0.40;;;16.20;48.40;;;;;;5053138;28;20036;-74
2022/05/29 10:46:37;;;;;;;0.50;0.47;;;15.70;49.20;;;;;;5047024;28;20033;-74
2022/05/29 10:49:29;;;;;;;1.35;0.50;;;15.70;49.00;;;;;;5067800;28;20041;-76
2022/05/29 10:52:19;;;;;;;0.35;0.32;;;15.30;48.70;;;;;;5067508;28;20040;-76
2022/05/29 10:55:07;;;;;;;1.83;0.60;;;15.30;48.30;;;;;;5069023;28;20036;-79
2022/05/29 10:57:51;;;;;;;1.17;0.50;;;15.50;48.20;;;;;;5077758;28;20048;-76
2022/05/29 11:00:41;;;;;;;2.35;0.65;;;15.20;47.00;;;;;;5041584;28;20052;-74
2022/05/29 11:03:37;;;;;;;0.65;0.35;;;15.70;47.60;;;;;;5048739;28;20394;-76
2022/05/29 11:06:08;;;;;;;1.23;0.40;;;16.40;45.40;;;;;;5076790;28;20398;-75
2022/05/29 11:08:49;;;;;;;1.83;0.57;;;16.70;46.30;;;;;;5050322;28;20044;-77
2022/05/29 11:11:15;;;;;;;1.67;0.68;;;16.80;46.70;;;;;;5067792;28;20474;-74
2022/05/29 11:14:05;;;;;;;0.68;0.57;;;16.70;46.50;;;;;;5055272;28;20032;-75
2022/05/29 11:16:58;;;;;;;2.17;0.60;;;16.50;46.00;;;;;;5036009;28;20052;-76
2022/05/29 11:19:51;;;;;;;0.40;0.30;;;16.70;47.70;;;;;;5053411;28;20040;-74
2022/05/29 11:22:30;;;;;;;3.15;0.40;;;16.70;45.80;;;;;;5055294;28;20044;-74
2022/05/29 11:25:18;;;;;;;1.17;0.60;;;16.30;47.20;;;;;;5071387;28;20051;-76
2022/05/29 11:28:04;;;;;;;1.85;0.80;;;15.90;47.40;;;;;;5051549;28;20037;-74
2022/05/29 11:30:35;;;;;;;2.95;1.13;;;16.10;45.90;;;;;;5069695;28;20036;-75
2022/05/29 11:33:11;;;;;;;1.35;0.45;;;16.40;46.30;;;;;;5053392;28;20039;-75
2022/05/29 11:36:16;;;;;;;1.25;0.47;;;16.60;45.20;;;;;;5047880;28;20048;-75
2022/05/29 11:39:19;;;;;;;1.20;0.40;;;16.80;43.50;;;;;;5066422;28;20056;-74
2022/05/29 11:42:02;;;;;;;0.95;0.47;;;16.80;45.30;;;;;;5071141;28;20462;-75
2022/05/29 11:44:37;;;;;;;0.73;0.50;;;17.00;45.90;;;;;;5072986;28;20040;-76
2022/05/29 11:53:38;;;;;;;0.50;0.40;;;17.70;43.70;;;;;;5054235;28;20044;-74
2022/05/29 11:56:24;;;;;;;0.98;0.45;;;17.90;43.10;;;;;;5050536;28;20041;-76
2022/05/29 11:59:18;;;;;;;2.17;0.47;;;17.60;43.30;;;;;;5066135;28;20029;-75
2022/05/29 12:01:50;;;;;;;2.80;0.60;;;17.60;41.90;;;;;;5065330;28;20389;-74
2022/05/29 12:04:27;;;;;;;3.85;0.55;;;17.20;43.50;;;;;;5047726;28;20044;-76
2022/05/29 12:07:05;;;;;;;1.27;0.65;;;17.00;44.10;;;;;;5071151;28;20032;-73
2022/05/29 12:10:10;;;;;;;1.00;0.45;;;17.00;44.20;;;;;;5050271;28;20530;-77
2022/05/29 12:12:44;;;;;;;0.40;0.30;;;16.90;44.70;;;;;;5051670;28;20481;-74
2022/05/29 12:15:17;;;;;;;0.80;0.65;;;17.10;45.20;;;;;;5073742;28;20036;-73
2022/05/29 12:17:51;;;;;;;5.88;0.40;;;17.20;44.80;;;;;;5056263;28;20043;-74
2022/05/29 12:20:36;;;;;;;1.70;0.70;;;17.10;44.60;;;;;;5076502;28;20036;-74
2022/05/29 12:23:22;;;;;;;1.73;0.60;;;16.50;45.30;;;;;;5057301;28;20047;-74
2022/05/29 12:25:57;;;;;;;1.10;0.40;;;16.10;45.70;;;;;;5074734;28;20032;-74
2022/05/29 12:28:50;;;;;;;0.90;0.70;;;16.00;45.70;;;;;;5072717;28;20412;-75
2022/05/29 12:31:34;;;;;;;1.98;0.50;;;16.10;46.20;;;;;;5069363;28;20037;-76
2022/05/29 12:34:01;;;;;;;1.00;0.50;;;16.40;44.50;;;;;;5069088;28;20037;-75
2022/05/29 12:36:58;;;;;;;0.57;0.40;;;16.50;44.70;;;;;;5075655;28;20036;-75
2022/05/29 12:39:30;;;;;;;1.70;0.60;;;16.60;44.30;;;;;;5054176;28;20028;-75
2022/05/29 12:42:05;;;;;;;3.20;0.55;;;16.60;43.80;;;;;;5069214;28;20029;-76
2022/05/29 12:45:00;;;;;;;2.05;0.32;;;16.70;44.20;;;;;;5071131;28;20057;-73
2022/05/29 12:47:38;;;;;;;1.60;0.68;;;16.30;42.90;;;;;;5056417;28;20044;-75
2022/05/29 12:50:10;;;;;;;1.58;0.85;;;16.60;43.70;;;;;;5073329;28;20048;-77
2022/05/29 12:52:54;;;;;;;0.40;0.30;;;16.90;42.10;;;;;;5057242;28;20051;-74
2022/05/29 12:55:42;;;;;;;1.60;0.52;;;16.40;42.20;;;;;;5065596;28;20029;-74
2022/05/29 12:58:29;;;;;;;0.98;0.43;;;17.20;43.20;;;;;;5038488;28;20438;-77
2022/05/29 13:01:01;;;;;;;0.52;0.43;;;17.70;41.30;;;;;;5037318;28;20045;-76
2022/05/29 13:03:46;;;;;;;2.17;0.43;;;18.10;41.80;;;;;;5068407;28;20032;-74
2022/05/29 13:06:33;;;;;;;1.38;0.80;;;18.20;41.20;;;;;;5069882;28;20045;-74
2022/05/29 13:09:21;;;;;;;1.35;0.40;;;17.60;42.40;;;;;;5067333;28;20458;-75
2022/05/29 13:11:51;;;;;;;0.50;0.35;;;17.20;43.50;;;;;;5070148;28;20037;-80
2022/05/29 13:14:20;;;;;;;2.42;0.82;;;17.10;44.00;;;;;;5073647;28;20028;-77
2022/05/29 13:17:12;;;;;;;1.20;0.70;;;17.30;43.70;;;;;;5074218;28;20024;-72
2022/05/29 13:20:18;;;;;;;1.00;0.55;;;17.40;43.00;;;;;;5069018;28;20029;-76
2022/05/29 13:22:50;;;;;;;1.55;0.60;;;17.70;42.40;;;;;;5064893;28;20517;-75
2022/05/29 13:25:30;;;;;;;1.08;0.65;;;17.80;41.90;;;;;;5072126;28;20045;-74
2022/05/29 13:27:58;;;;;;;1.58;0.70;;;17.80;41.50;;;;;;5071385;28;20050;-75
2022/05/29 13:30:36;;;;;;;1.05;0.43;;;17.30;41.20;;;;;;5072693;28;20028;-75
2022/05/29 13:33:24;;;;;;;0.60;0.40;;;17.40;41.30;;;;;;5070915;28;20041;-75
2022/05/29 13:35:51;;;;;;;2.55;0.45;;;18.10;41.00;;;;;;5066761;28;20033;-76
2022/05/29 13:38:54;;;;;;;0.65;0.30;;;18.30;40.40;;;;;;5068387;28;20507;-76
2022/05/29 13:41:28;;;;;;;0.50;0.38;;;18.30;40.20;;;;;;5056094;28;20040;-76
2022/05/29 13:43:55;;;;;;;0.60;0.50;;;18.60;39.30;;;;;;5067548;28;20136;-76
2022/05/29 13:46:27;;;;;;;0.55;0.30;;;18.40;39.60;;;;;;5072298;28;20055;-76
2022/05/29 13:49:11;;;;;;;1.58;0.60;;;18.00;38.60;;;;;;5071628;28;20028;-75
2022/05/29 13:51:44;;;;;;;1.08;0.60;;;18.00;38.70;;;;;;5072281;28;20028;-77
2022/05/29 13:54:28;;;;;;;1.38;0.68;;;18.20;39.20;;;;;;5074348;28;20037;-77
2022/05/29 13:57:05;;;;;;;1.33;0.50;;;19.10;39.00;;;;;;5073999;28;20035;-77